Castle Hills, Texas
Current Conditions -  °F | °C
As of 10:51 PM on Friday 24 Oct 2014 (Local Time) from KSAT Reporting Station
Clear Clear  
Wind Chill: 72°   Ceiling: Unl
Heat Index: 72°   Visibility: 10mi
Dew Point: 58°   Wind: 0mph
Humidity: 61%   Direction: NA
Pressure: 30.15"   Gusts: NA
Location:  29.5157°N, 98.5226°W
Report Text: KSAT 250351Z 00000KT 10SM CLR 22/14 A3015 RMK AO2 SLP192 T02220144
Loading
Personal Weather Stations






























Interactive Weather Map
Tropical Storm Tracking
New forecast layout! Learn more

10-Day Weather Forecast

Advertisements
Track Severe Weather on mobile